KMEM/MEM METAR and TAF weather

Enter ICAO airport designator
Station Type Date Time Source
KMEM METAR 2018/12/18 18:54 UTC NOAA

KMEM 181854Z 00000KT 10SM FEW250 14/02 A3012 RMK AO2 SLP199 T01440017 $


Station Type Date Time Source
KMEM Decoded METAR 2018/12/18 18:54 UTC NOAA

MEMPHIS INTERNATIONAL AIRPORT , TN, United States (KMEM) 35-02N 089-59W 86M
Dec 18, 2018 - 01:54 PM EST / 2018.12.18 1854 UTC
Wind: Calm:0
Visibility: 10 mile(s):0
Sky conditions: mostly clear
Temperature: 57.9 F (14.4 C)
Dew Point: 35.1 F (1.7 C)
Relative Humidity: 42%
Pressure (altimeter): 30.12 in. Hg (1019 hPa)
ob: KMEM 181854Z 00000KT 10SM FEW250 14/02 A3012 RMK AO2 SLP199 T01440017
cycle: 19

Station Type Date Time Source
KMEM TAF 2018/12/18 18:33 UTC NOAA

TAF KMEM 181731Z 1818/1924 09004KT P6SM SCT250
FM190000 11004KT P6SM SCT200
FM191000 15004KT P6SM SCT020
FM191500 17006KT P6SM BKN020


Example: see airport list